Latest Weather Observations for Tewantin

IDQ60801

Issued at 9:05 pm EST Tuesday 22 July 2014 (issued every 30 minutes, with the page automatically refreshed every 10 minutes)

About weather observations | Map of weather stations | Latest weather observations for QLD | Other Formats
Station Details ID: 040908 Name: TEWANTIN RSL PARK Lat: -26.39 Lon: 153.04 Height: 6.4 m
Data from the previous 72 hours. | See also: Recent months at Tewantin
Date/Time
EST
Temp
°C
App
Temp
°C
Dew
Point
Rel
Hum
%
Delta-T
°C
Wind Press
QNH
hPa
Press
MSL
hPa
Rain
since 9 am
mm
Dir
 
Spd
km/h
Gust
km/h
Spd
kts
Gust
kts
22/09:00pm 14.6 14.6 14.3 98 0.2 S 7 11 4 6 1021.3 1021.3 1.0
22/08:30pm 14.9 14.8 13.9 94 0.6 S 7 11 4 6 1021.4 - -
22/08:00pm 15.0 13.8 13.9 93 0.6 E 13 19 7 10 1020.8 1020.8 -
22/07:30pm 16.0 15.1 13.8 87 1.2 S 11 20 6 11 1021.3 - -
22/07:00pm 16.0 16.1 13.8 87 1.2 S 6 7 3 4 1020.6 1020.6 -
22/06:30pm 16.6 16.7 13.9 84 1.5 S 6 7 3 4 1020.2 - -
22/06:00pm 17.0 16.9 13.9 82 1.8 S 7 9 4 5 1019.8 1019.8 -
22/05:30pm 17.5 17.5 13.6 78 2.2 SSE 6 9 3 5 1019.4 - -
22/05:00pm 18.0 17.8 13.7 76 2.4 ESE 7 9 4 5 1019.2 1019.2 -
22/04:30pm 18.5 17.4 13.1 71 3.0 ESE 11 15 6 8 1019.0 - -
22/04:00pm 18.7 17.7 13.3 71 3.1 ESE 11 17 6 9 1018.9 1018.9 -
22/03:30pm 18.9 18.6 13.3 70 3.2 ESE 7 17 4 9 1019.0 - -
22/03:00pm 18.5 18.1 12.9 70 3.1 ENE 7 11 4 6 1018.8 1018.8 -
22/02:30pm 18.3 17.5 13.0 71 3.0 ESE 9 15 5 8 1018.9 - -
22/02:00pm 19.0 17.2 12.0 64 3.9 SE 13 22 7 12 1018.7 1018.7 -
22/01:30pm 20.3 18.2 12.5 61 4.4 SE 15 24 8 13 1018.9 - -
22/10:30am 20.3 19.3 13.5 65 3.9 S 11 17 6 9 1021.7 - 0.0
22/10:00am 19.4 18.7 13.1 67 3.6 S 9 11 5 6 1021.9 1021.9 0.0
22/09:30am 18.4 17.4 13.5 73 2.8 S 11 15 6 8 1022.1 - 0.0
22/09:00am 17.2 16.5 13.1 77 2.3 S 9 13 5 7 1022.1 1022.1 0.0
22/08:30am 16.3 16.4 14.5 89 1.0 S 7 11 4 6 1022.0 - 0.0
22/08:00am 13.3 14.3 13.1 99 0.1 CALM 0 0 0 0 1021.9 1021.9 0.0
22/07:30am 12.6 13.4 12.4 99 0.1 CALM 0 0 0 0 1021.7 - 0.0
22/07:00am 12.4 13.1 12.2 99 0.1 CALM 0 0 0 0 1021.3 1021.3 0.0
22/06:30am 12.1 12.7 11.9 99 0.1 CALM 0 0 0 0 1021.1 - 0.0
22/06:00am 12.1 11.9 11.9 99 0.1 S 4 6 2 3 1020.9 1020.9 0.0
22/05:30am 12.2 12.8 12.0 99 0.1 CALM 0 6 0 3 1020.7 - 0.0
22/05:00am 12.4 13.1 12.2 99 0.1 CALM 0 0 0 0 1020.4 1020.4 0.0
22/04:30am 12.7 13.1 12.5 99 0.1 S 2 7 1 4 1020.2 - 0.0
22/04:00am 12.8 12.5 12.6 99 0.1 S 6 9 3 5 1020.4 1020.4 0.0
22/03:30am 12.6 12.6 12.4 99 0.1 S 4 7 2 4 1020.5 - 0.0
22/03:00am 12.7 13.1 12.5 99 0.1 S 2 7 1 4 1020.5 1020.5 0.0
22/02:30am 12.7 13.5 12.4 98 0.2 CALM 0 0 0 0 1020.5 - 0.0
22/02:00am 13.2 13.7 12.9 98 0.2 S 2 7 1 4 1020.7 1020.7 0.0
22/01:30am 13.5 13.4 13.2 98 0.2 S 6 7 3 4 1021.0 - 0.0
22/01:00am 13.5 13.4 13.2 98 0.2 S 6 9 3 5 1021.2 1021.2 0.0
22/12:30am 13.2 14.1 12.9 98 0.2 CALM 0 2 0 1 1021.2 - 0.0
22/12:00am 13.1 13.2 12.8 98 0.2 SSW 4 6 2 3 1021.5 1021.5 0.0
 
Date/Time
EST
Temp
°C
App
Temp
°C
Dew
Point
Rel
Hum
%
Delta-T
°C
Wind Press
QNH
hPa
Press
MSL
hPa
Rain
since 9 am
mm
Dir
 
Spd
km/h
Gust
km/h
Spd
kts
Gust
kts
21/11:30pm 13.2 13.0 12.9 98 0.2 S 6 7 3 4 1021.5 - 0.0
21/11:00pm 13.3 13.8 12.8 97 0.3 S 2 7 1 4 1021.9 1021.9 0.0
21/10:30pm 13.5 14.4 12.9 96 0.3 CALM 0 0 0 0 1022.0 - 0.0
21/10:00pm 13.7 14.6 12.9 95 0.4 CALM 0 6 0 3 1022.0 1022.0 0.0
21/09:30pm 13.7 14.5 12.4 92 0.7 CALM 0 0 0 0 1022.1 - 0.0
21/09:00pm 14.2 14.7 12.8 91 0.8 SSW 2 7 1 4 1021.9 1021.9 0.0
21/08:30pm 14.4 14.1 12.8 90 0.9 S 6 7 3 4 1021.8 - 0.0
21/08:00pm 14.7 14.3 12.9 89 1.0 S 7 11 4 6 1021.8 1021.8 0.0
21/07:30pm 15.1 14.4 13.1 88 1.1 S 9 13 5 7 1021.8 - 0.0
21/07:00pm 15.5 15.2 13.2 86 1.3 S 7 11 4 6 1021.7 1021.7 0.0
21/06:30pm 16.0 15.7 13.3 84 1.5 S 7 11 4 6 1021.5 - 0.0
21/06:00pm 16.5 15.6 13.6 83 1.6 S 11 17 6 9 1021.2 1021.2 0.0
21/05:30pm 16.8 16.0 13.9 83 1.6 SSE 11 17 6 9 1020.9 - 0.0
21/05:00pm 17.3 16.4 13.6 79 2.1 SSE 11 19 6 10 1020.7 1020.7 0.0
21/04:30pm 17.9 16.6 13.6 76 2.4 SSE 13 24 7 13 1020.4 - 0.0
21/04:00pm 18.5 16.5 14.0 75 2.6 SSE 17 26 9 14 1020.2 1020.2 0.0
21/03:30pm 18.9 17.5 13.3 70 3.2 SE 13 22 7 12 1020.1 - 0.0
21/03:00pm 19.2 17.6 14.0 72 3.0 SE 15 28 8 15 1020.0 1020.0 0.0
21/02:30pm 19.3 17.3 13.9 71 3.1 SSE 17 24 9 13 1020.0 - 0.0
21/02:00pm 20.1 18.8 13.6 66 3.7 SSE 13 22 7 12 1019.8 1019.8 0.0
21/01:30pm 19.6 17.3 13.1 66 3.7 SE 17 24 9 13 1019.8 - 0.0
21/01:00pm 20.2 18.0 13.4 65 3.9 SE 17 24 9 13 1019.9 1019.9 0.0
21/12:30pm 20.3 18.4 13.0 63 4.1 SSE 15 24 8 13 1020.4 - 0.0
21/12:00pm 20.6 19.0 12.8 61 4.4 SSE 13 19 7 10 1021.0 1021.0 0.0
21/11:30am 20.4 19.0 13.4 64 4.0 SSE 13 22 7 12 1021.5 - 0.0
21/11:00am 20.4 18.9 13.1 63 4.1 S 13 24 7 13 1021.8 1021.8 0.0
21/10:30am 19.8 17.4 12.6 63 4.0 S 17 24 9 13 1022.1 - 0.0
21/10:00am 19.3 17.6 12.3 64 3.9 S 13 19 7 10 1022.3 1022.3 0.0
21/09:30am 18.4 15.8 11.9 66 3.6 S 17 26 9 14 1022.3 - 0.0
21/09:00am 17.9 15.9 11.5 66 3.5 S 13 20 7 11 1022.5 1022.5 0.0
21/08:30am 16.8 14.7 11.1 69 3.1 S 13 22 7 12 1022.5 - 0.0
21/08:00am 15.9 13.7 10.7 71 2.7 S 13 20 7 11 1022.4 1022.4 0.0
21/07:30am 14.7 12.7 10.1 74 2.4 S 11 19 6 10 1022.2 - 0.0
21/07:00am 13.1 11.8 9.9 81 1.6 S 7 11 4 6 1021.9 1021.9 0.0
21/06:30am 12.8 11.4 9.6 81 1.6 S 7 11 4 6 1021.4 - 0.0
21/06:00am 12.6 11.2 9.6 82 1.5 SSW 7 13 4 7 1021.2 1021.2 0.0
21/05:30am 12.4 11.1 9.8 84 1.3 S 7 11 4 6 1020.9 - 0.0
21/05:00am 11.8 10.6 9.7 87 1.1 S 6 9 3 5 1020.6 1020.6 0.0
21/04:30am 11.8 11.1 9.9 88 1.0 SSW 4 9 2 5 1020.4 - 0.0
21/04:00am 11.1 11.0 9.4 89 0.8 CALM 0 0 0 0 1020.3 1020.3 0.0
21/03:30am 11.5 10.0 9.2 86 1.2 S 7 9 4 5 1020.5 - 0.0
21/03:00am 11.0 10.5 9.3 89 0.8 S 2 6 1 3 1020.7 1020.7 0.0
21/02:30am 10.5 10.2 8.6 88 0.9 CALM 0 6 0 3 1020.9 - 0.0
21/02:00am 11.0 11.0 9.8 92 0.6 CALM 0 0 0 0 1020.7 1020.7 0.0
21/01:30am 10.6 10.6 9.8 95 0.4 CALM 0 0 0 0 1020.9 - 0.0
21/01:00am 10.9 10.8 9.5 91 0.7 CALM 0 0 0 0 1021.2 1021.2 0.0
21/12:30am 11.2 11.1 9.6 90 0.8 CALM 0 0 0 0 1021.3 - 0.0
21/12:00am 11.8 11.7 9.4 85 1.2 CALM 0 0 0 0 1021.4 1021.4 0.0
 
Date/Time
EST
Temp
°C
App
Temp
°C
Dew
Point
Rel
Hum
%
Delta-T
°C
Wind Press
QNH
hPa
Press
MSL
hPa
Rain
since 9 am
mm
Dir
 
Spd
km/h
Gust
km/h
Spd
kts
Gust
kts
20/11:30pm 12.0 12.0 9.7 86 1.2 CALM 0 0 0 0 1021.4 - 0.0
20/11:00pm 12.1 12.2 10.2 88 1.0 CALM 0 0 0 0 1021.5 1021.5 0.0
20/10:30pm 11.9 12.0 10.3 90 0.8 CALM 0 0 0 0 1021.6 - 0.0
20/10:00pm 11.3 11.2 9.4 88 0.9 CALM 0 0 0 0 1021.9 1021.9 0.0
20/09:30pm 11.2 11.0 9.1 87 1.0 CALM 0 0 0 0 1021.5 - 0.0
20/09:00pm 11.5 11.2 8.7 83 1.4 CALM 0 0 0 0 1021.6 1021.6 0.0
20/08:30pm 11.9 11.7 9.1 83 1.4 CALM 0 6 0 3 1021.5 - 0.0
20/08:00pm 12.3 12.1 9.0 80 1.6 CALM 0 0 0 0 1021.5 1021.5 0.0
20/07:30pm 13.0 12.8 8.9 76 2.1 CALM 0 0 0 0 1021.2 - 0.0
20/07:00pm 14.0 13.5 9.2 73 2.4 SW 2 6 1 3 1021.0 1021.0 0.0
20/06:30pm 14.7 14.5 9.1 69 2.9 CALM 0 0 0 0 1020.4 - 0.0
20/06:00pm 15.9 15.3 10.4 70 2.9 SSW 4 7 2 4 1020.1 1020.1 0.0
20/05:30pm 16.7 15.3 9.6 63 3.7 S 7 9 4 5 1019.9 - 0.0
20/05:00pm 17.7 16.2 9.1 57 4.5 SSE 7 11 4 6 1019.6 1019.6 0.0
20/04:30pm 18.3 15.9 8.8 54 4.9 SE 11 19 6 10 1019.4 - 0.0
20/04:00pm 18.5 15.4 8.7 53 5.1 ESE 15 24 8 13 1019.1 1019.1 0.0
20/03:30pm 18.6 15.4 8.6 52 5.2 ESE 15 24 8 13 1019.0 - 0.0
20/03:00pm 18.8 16.0 8.5 51 5.3 ESE 13 22 7 12 1019.0 1019.0 0.0
20/02:30pm 19.1 15.9 8.4 50 5.5 ESE 15 22 8 12 1019.0 - 0.0
20/02:00pm 20.8 17.6 5.2 36 7.7 S 11 19 6 10 1018.9 1018.9 0.0
20/01:30pm 20.8 18.4 5.2 36 7.7 SSW 7 17 4 9 1019.4 - 0.0
20/01:00pm 20.2 17.5 5.8 39 7.1 S 9 15 5 8 1019.6 1019.6 0.0
20/12:30pm 20.7 18.2 6.6 40 7.1 S 9 17 5 9 1020.1 - 0.0
20/12:00pm 19.5 16.8 7.3 45 6.2 SSE 11 17 6 9 1020.2 1020.2 0.0
20/11:30am 19.2 16.2 6.0 42 6.5 S 11 19 6 10 1020.5 - 0.0
20/11:00am 18.8 15.4 6.0 43 6.3 SSE 13 20 7 11 1020.8 1020.8 0.0
20/10:30am 18.4 15.1 6.6 46 5.9 S 13 20 7 11 1021.1 - 0.0
20/10:00am 17.4 13.5 5.4 45 5.8 S 15 24 8 13 1021.2 1021.2 0.0
20/09:30am 17.3 13.8 5.6 46 5.7 S 13 20 7 11 1021.3 - 0.0
20/09:00am 16.2 12.7 3.6 43 5.8 SSW 11 19 6 10 1021.4 1021.4 0.0
20/08:30am 15.4 12.8 4.2 47 5.2 S 7 13 4 7 1021.0 - 0.0
20/08:00am 14.2 11.7 4.5 52 4.5 SSW 7 11 4 6 1021.0 1021.0 0.0
20/07:30am 12.7 10.0 3.6 54 4.1 S 7 11 4 6 1020.7 - 0.0
20/07:00am 11.9 8.8 3.7 57 3.6 SSW 9 13 5 7 1020.4 1020.4 0.0
20/06:30am 11.4 8.2 3.2 57 3.6 SSW 9 13 5 7 1020.1 - 0.0
20/06:00am 11.1 8.2 2.7 56 3.6 SSW 7 11 4 6 1019.5 1019.5 0.0
20/05:30am 11.6 8.1 3.4 57 3.6 SSW 11 17 6 9 1019.3 - 0.0
20/05:00am 11.2 7.7 3.7 60 3.3 SSW 11 17 6 9 1019.2 1019.2 0.0
20/04:30am 9.9 7.0 4.9 71 2.2 S 9 13 5 7 1019.2 - 0.0
20/04:00am 8.0 7.1 6.0 87 0.9 CALM 0 6 0 3 1019.1 1019.1 0.0
20/03:30am 7.4 6.0 3.6 77 1.6 CALM 0 0 0 0 1019.0 - 0.0
20/03:00am 8.0 6.9 5.3 83 1.2 CALM 0 0 0 0 1019.1 1019.1 0.0
20/02:30am 7.6 5.8 5.4 86 1.0 SSW 4 7 2 4 1019.1 - 0.0
20/02:00am 7.7 6.7 5.7 87 0.9 CALM 0 0 0 0 1019.2 1019.2 0.0
20/01:30am 8.0 7.0 5.5 84 1.1 CALM 0 0 0 0 1019.5 - 0.0
20/01:00am 7.7 6.5 4.8 82 1.3 CALM 0 0 0 0 1019.7 1019.7 0.0
20/12:30am 8.0 7.0 5.5 84 1.1 CALM 0 0 0 0 1019.7 - 0.0
20/12:00am 7.8 6.5 4.2 78 1.6 CALM 0 0 0 0 1019.9 1019.9 0.0
 
Date/Time
EST
Temp
°C
App
Temp
°C
Dew
Point
Rel
Hum
%
Delta-T
°C
Wind Press
QNH
hPa
Press
MSL
hPa
Rain
since 9 am
mm
Dir
 
Spd
km/h
Gust
km/h
Spd
kts
Gust
kts
19/11:30pm 8.2 7.3 6.2 87 0.9 CALM 0 0 0 0 1020.0 - 0.0
19/11:00pm 8.3 7.3 5.4 82 1.3 CALM 0 0 0 0 1020.1 1020.1 0.0
19/10:30pm 8.5 7.2 4.1 74 1.9 CALM 0 0 0 0 1020.0 - 0.0
19/10:00pm 8.9 7.8 4.9 76 1.8 CALM 0 6 0 3 1020.0 1020.0 0.0
19/09:30pm 9.5 7.8 5.9 78 1.6 NNE 4 7 2 4 1019.8 - 0.0

Other Formats:

Comma delimited format used in spreadsheet applications
http://www.bom.gov.au/fwo/IDQ60801/IDQ60801.94570.axf

JavaScript Object Notation format (JSON) in row-major order
http://www.bom.gov.au/fwo/IDQ60801/IDQ60801.94570.json